Time;durP1;ratioP1;P1;durP2;ratioP2;P2;SDS_P1;SDS_P2;PMS_P1;PMS_P2;Temp;Humidity;BMP_temperature;BMP_pressure;BME280_temperature;BME280_humidity;BME280_pressure;Samples;Min_cycle;Max_cycle;Signal;HPM_P1;HPM_P2
2023/08/18 00:00:35;;;;;;;11.50;10.30;;;;;24.00;100638.00;;;;2101969;28;20573;-57
2023/08/18 00:01:35;;;;;;;11.50;10.40;;;;;24.00;100645.00;;;;2101435;28;20234;-59
2023/08/18 00:02:35;;;;;;;12.17;10.13;;;;;24.00;100638.00;;;;2102577;28;20215;-59
2023/08/18 00:03:36;;;;;;;11.37;10.27;;;;;24.00;100646.00;;;;2083024;28;20318;-59
2023/08/18 00:04:36;;;;;;;10.70;9.20;;;;;24.00;100636.00;;;;2092499;28;20220;-59
2023/08/18 00:05:36;;;;;;;11.23;10.13;;;;;24.00;100640.00;;;;2096118;28;20235;-57
2023/08/18 00:06:37;;;;;;;10.60;9.50;;;;;23.70;100639.00;;;;2088595;28;21724;-63
2023/08/18 00:07:37;;;;;;;10.53;9.50;;;;;24.00;100635.00;;;;2092701;28;20220;-66
2023/08/18 00:08:37;;;;;;;10.60;9.60;;;;;24.00;100634.00;;;;2091226;28;20231;-61
2023/08/18 00:09:38;;;;;;;10.73;9.17;;;;;24.00;100635.00;;;;2088664;28;20308;-62
2023/08/18 00:10:38;;;;;;;10.10;9.00;;;;;24.00;100627.00;;;;2088150;28;20219;-61
2023/08/18 00:11:38;;;;;;;10.63;9.60;;;;;24.00;100636.00;;;;2092422;28;20220;-61
2023/08/18 00:12:39;;;;;;;10.80;9.50;;;;;24.00;100632.00;;;;2092455;28;20306;-61
2023/08/18 00:13:39;;;;;;;10.57;9.53;;;;;24.00;100635.00;;;;2078251;28;20228;-57
2023/08/18 00:14:39;;;;;;;11.10;10.00;;;;;24.00;100637.00;;;;2101738;28;20265;-57
2023/08/18 00:15:40;;;;;;;10.10;9.03;;;;;24.00;100632.00;;;;2095943;28;20254;-57
2023/08/18 00:16:40;;;;;;;10.10;9.10;;;;;24.00;100636.00;;;;2101509;28;20584;-58
2023/08/18 00:17:42;;;;;;;10.37;9.30;;;;;24.00;100639.00;;;;2101258;28;20563;-60
2023/08/18 00:18:42;;;;;;;11.13;9.98;;;;;24.00;100629.00;;;;2090449;28;21373;-59
2023/08/18 00:19:43;;;;;;;9.83;8.83;;;;;24.00;100635.00;;;;2096924;28;20216;-59
2023/08/18 00:20:43;;;;;;;10.68;9.50;;;;;24.00;100652.00;;;;2084883;28;21025;-59
2023/08/18 00:21:44;;;;;;;10.00;9.00;;;;;24.00;100638.00;;;;2101637;28;20220;-57
2023/08/18 00:22:44;;;;;;;10.33;9.07;;;;;24.00;100632.00;;;;2102412;28;20736;-58
2023/08/18 00:23:45;;;;;;;9.20;8.30;;;;;24.00;100625.00;;;;2090921;28;20620;-59
2023/08/18 00:24:45;;;;;;;10.63;9.53;;;;;24.00;100632.00;;;;2087886;28;20213;-57
2023/08/18 00:25:45;;;;;;;10.60;9.50;;;;;24.00;100630.00;;;;2080081;28;20225;-59
2023/08/18 00:26:46;;;;;;;9.47;8.40;;;;;24.00;100629.00;;;;2093172;28;20315;-59
2023/08/18 00:27:46;;;;;;;10.20;9.10;;;;;24.00;100638.00;;;;2093274;28;20231;-57
2023/08/18 00:28:46;;;;;;;10.90;9.13;;;;;24.00;100659.00;;;;2085290;28;20768;-58
2023/08/18 00:29:47;;;;;;;9.80;8.83;;;;;24.00;100618.00;;;;2093131;28;20620;-58
2023/08/18 00:30:47;;;;;;;10.17;9.17;;;;;24.00;100632.00;;;;2094859;28;20862;-59
2023/08/18 00:31:48;;;;;;;9.90;8.90;;;;;24.00;100634.00;;;;2102178;28;20219;-59
2023/08/18 00:32:48;;;;;;;10.10;9.00;;;;;24.00;100636.00;;;;2096381;28;20216;-59
2023/08/18 00:33:48;;;;;;;10.10;9.20;;;;;24.00;100638.00;;;;2089124;28;20224;-59
2023/08/18 00:34:49;;;;;;;9.47;8.57;;;;;24.00;100644.00;;;;2098963;28;20223;-57
2023/08/18 00:35:49;;;;;;;9.33;8.40;;;;;24.00;100637.00;;;;2098567;28;20220;-59
2023/08/18 00:36:49;;;;;;;10.60;9.60;;;;;24.00;100627.00;;;;2101762;28;20276;-59
2023/08/18 00:37:50;;;;;;;9.27;8.37;;;;;24.00;100634.00;;;;2100776;28;20223;-59
2023/08/18 00:38:50;;;;;;;11.53;9.87;;;;;24.00;100633.00;;;;2091551;28;20222;-59
2023/08/18 00:39:50;;;;;;;9.13;8.10;;;;;24.00;100642.00;;;;2100719;28;20777;-59
2023/08/18 00:40:51;;;;;;;10.37;9.37;;;;;24.00;100499.00;;;;2100856;28;20768;-61
2023/08/18 00:41:51;;;;;;;10.37;8.90;;;;;24.00;100631.00;;;;2096512;28;20582;-58
2023/08/18 00:42:52;;;;;;;10.30;9.10;;;;;24.00;100627.00;;;;2094217;28;20582;-61
2023/08/18 00:43:52;;;;;;;10.03;8.93;;;;;24.00;100640.00;;;;2076181;28;20670;-61
2023/08/18 00:44:52;;;;;;;8.90;8.10;;;;;24.00;100638.00;;;;2089620;28;20231;-59
2023/08/18 00:45:53;;;;;;;10.23;9.23;;;;;24.00;100640.00;;;;2092336;28;20247;-60
2023/08/18 00:46:53;;;;;;;10.50;9.07;;;;;24.00;100633.00;;;;2092238;28;20763;-56
2023/08/18 00:47:54;;;;;;;10.37;9.37;;;;;24.00;100629.00;;;;2082808;28;20213;-58
2023/08/18 00:48:58;;;;;;;9.87;8.87;;;;;24.00;100622.00;;;;2082697;28;20307;-58
2023/08/18 00:49:59;;;;;;;9.82;8.82;;;;;24.00;100634.00;;;;2083731;28;20221;-58
2023/08/18 00:50:59;;;;;;;9.20;8.23;;;;;24.00;100642.00;;;;2067032;28;20582;-58
2023/08/18 00:51:59;;;;;;;11.30;9.17;;;;;24.00;100632.00;;;;2072977;28;20597;-55
2023/08/18 00:53:00;;;;;;;10.10;9.07;;;;;24.00;100642.00;;;;2084944;28;20718;-56
2023/08/18 00:54:01;;;;;;;9.00;8.10;;;;;23.70;100641.00;;;;2074832;28;20646;-56
2023/08/18 00:55:02;;;;;;;9.05;8.15;;;;;24.00;100640.00;;;;2086429;28;20310;-55
2023/08/18 00:56:02;;;;;;;9.87;8.60;;;;;24.00;100641.00;;;;2095041;28;20285;-58
2023/08/18 00:57:03;;;;;;;10.53;9.43;;;;;24.00;100632.00;;;;2082147;28;20307;-58
2023/08/18 00:58:03;;;;;;;9.27;8.40;;;;;24.00;100629.00;;;;2084579;28;20224;-58
2023/08/18 00:59:05;;;;;;;9.63;8.63;;;;;24.00;100633.00;;;;2079572;28;20243;-58
2023/08/18 01:00:06;;;;;;;10.20;9.13;;;;;24.00;100674.00;;;;2082355;28;20300;-58
2023/08/18 01:01:06;;;;;;;10.30;9.23;;;;;24.00;100626.00;;;;2084126;28;20782;-57
2023/08/18 01:02:06;;;;;;;8.97;8.13;;;;;24.00;100638.00;;;;2071308;28;20518;-57
2023/08/18 01:03:07;;;;;;;9.23;8.33;;;;;24.00;100634.00;;;;2074806;28;20225;-58
2023/08/18 01:04:07;;;;;;;10.60;9.50;;;;;24.00;100635.00;;;;2068834;28;20217;-58
2023/08/18 01:05:08;;;;;;;9.90;8.90;;;;;24.00;100638.00;;;;2064870;28;20210;-58
2023/08/18 01:06:08;;;;;;;10.47;9.47;;;;;24.00;100639.00;;;;2079942;28;20591;-56
2023/08/18 01:07:08;;;;;;;10.80;9.20;;;;;24.00;100633.00;;;;2093269;28;20377;-57
2023/08/18 01:08:09;;;;;;;11.13;9.47;;;;;24.00;100637.00;;;;2093292;28;20217;-56
2023/08/18 01:09:09;;;;;;;10.13;9.13;;;;;24.00;100641.00;;;;2082769;28;20217;-58
2023/08/18 01:10:09;;;;;;;10.00;9.00;;;;;24.00;100633.00;;;;2084257;28;20278;-58
2023/08/18 01:11:18;;;;;;;9.23;8.43;;;;;24.00;100636.00;;;;2091051;28;20220;-58
2023/08/18 01:12:42;;;;;;;9.68;8.65;;;;;24.00;100633.00;;;;2088246;28;20725;-58
2023/08/18 01:13:54;;;;;;;8.85;7.95;;;;;24.00;100634.00;;;;2063572;28;20788;-54
2023/08/18 01:15:16;;;;;;;8.70;7.90;;;;;24.00;100631.00;;;;2072911;28;20281;-56
2023/08/18 01:16:21;;;;;;;9.75;8.85;;;;;24.00;100620.00;;;;2075701;28;20216;-57
2023/08/18 01:17:25;;;;;;;9.65;8.65;;;;;24.00;100639.00;;;;2087362;28;20263;-57
2023/08/18 01:18:25;;;;;;;10.20;9.20;;;;;24.00;100621.00;;;;2059744;28;20587;-58
2023/08/18 01:19:26;;;;;;;9.70;8.60;;;;;24.00;100614.00;;;;2071413;28;20217;-58
2023/08/18 01:20:26;;;;;;;9.90;8.90;;;;;24.00;100587.00;;;;2076312;28;20221;-58
2023/08/18 01:21:26;;;;;;;9.47;8.57;;;;;24.00;100620.00;;;;2078799;28;20215;-57
2023/08/18 01:22:26;;;;;;;11.10;9.73;;;;;24.00;100617.00;;;;2084400;28;20221;-58
2023/08/18 01:23:39;;;;;;;9.63;8.63;;;;;24.00;100610.00;;;;2064466;28;20293;-57
2023/08/18 01:24:40;;;;;;;9.70;8.70;;;;;24.00;100615.00;;;;2082561;28;20225;-56
2023/08/18 01:25:40;;;;;;;9.63;8.60;;;;;24.00;100620.00;;;;2078494;28;20308;-58
2023/08/18 01:26:41;;;;;;;8.40;7.60;;;;;24.00;100617.00;;;;2080311;28;20967;-55
2023/08/18 01:27:41;;;;;;;8.67;7.73;;;;;24.00;100618.00;;;;2098143;28;20665;-55
2023/08/18 01:28:43;;;;;;;9.20;8.30;;;;;24.00;100616.00;;;;2068980;28;20588;-56
2023/08/18 01:29:43;;;;;;;8.98;8.07;;;;;23.90;100617.00;;;;2064421;28;20926;-55
2023/08/18 01:30:48;;;;;;;9.33;8.43;;;;;24.00;100608.00;;;;2079782;28;20363;-56
2023/08/18 01:31:53;;;;;;;8.32;7.63;;;;;24.00;100615.00;;;;2079325;28;20223;-58
2023/08/18 01:32:57;;;;;;;10.18;9.23;;;;;24.00;100608.00;;;;2062911;28;20301;-55
2023/08/18 01:34:05;;;;;;;10.00;9.00;;;;;24.00;100613.00;;;;2066216;28;20221;-56
2023/08/18 01:35:06;;;;;;;8.02;7.22;;;;;24.00;100609.00;;;;2068537;28;20218;-58
2023/08/18 01:36:08;;;;;;;9.70;8.70;;;;;24.00;100600.00;;;;2074708;28;20260;-56
2023/08/18 01:37:08;;;;;;;10.05;9.00;;;;;24.00;100603.00;;;;2072778;28;20324;-58
2023/08/18 01:38:09;;;;;;;9.03;8.17;;;;;24.00;100600.00;;;;2081633;28;20358;-58
2023/08/18 01:39:09;;;;;;;8.63;7.80;;;;;24.00;100595.00;;;;2075789;28;20460;-57
2023/08/18 01:40:10;;;;;;;8.90;8.00;;;;;24.00;100628.00;;;;2077986;28;20216;-58
2023/08/18 01:41:10;;;;;;;9.63;8.73;;;;;24.00;100593.00;;;;2085136;28;20235;-55
2023/08/18 01:42:10;;;;;;;8.47;7.67;;;;;24.00;100599.00;;;;2076461;28;20217;-57
2023/08/18 01:43:11;;;;;;;9.50;8.60;;;;;24.00;100591.00;;;;2073782;28;20228;-58
2023/08/18 01:44:14;;;;;;;9.83;8.83;;;;;24.00;100598.00;;;;2084920;28;20299;-58
2023/08/18 01:45:15;;;;;;;8.35;7.55;;;;;24.00;100594.00;;;;2082513;28;20228;-57
2023/08/18 01:46:15;;;;;;;9.83;8.93;;;;;23.30;100591.00;;;;2082116;28;20605;-58
2023/08/18 01:47:16;;;;;;;9.07;8.17;;;;;24.00;100591.00;;;;2081036;28;20232;-54
2023/08/18 01:48:16;;;;;;;10.00;7.97;;;;;24.00;100596.00;;;;2081439;28;20239;-55
2023/08/18 01:49:16;;;;;;;8.77;7.80;;;;;24.00;100590.00;;;;2099561;28;20238;-56
2023/08/18 01:50:17;;;;;;;8.53;7.73;;;;;24.00;100590.00;;;;2092784;28;20322;-57
2023/08/18 01:51:17;;;;;;;9.43;8.10;;;;;24.00;100590.00;;;;2084305;28;20650;-57
2023/08/18 01:52:18;;;;;;;8.47;7.67;;;;;24.00;100588.00;;;;2091369;28;20212;-58
2023/08/18 01:53:18;;;;;;;8.13;7.43;;;;;24.00;100588.00;;;;2085978;28;20216;-59
2023/08/18 01:54:18;;;;;;;8.20;7.37;;;;;24.00;100583.00;;;;2082870;28;20323;-58
2023/08/18 01:55:19;;;;;;;8.40;7.50;;;;;24.00;100591.00;;;;2082244;28;20291;-58
2023/08/18 01:56:19;;;;;;;9.40;8.50;;;;;24.00;100598.00;;;;2100691;28;20211;-55
2023/08/18 01:57:19;;;;;;;8.10;7.30;;;;;24.00;100593.00;;;;2100844;28;20207;-57
2023/08/18 01:58:20;;;;;;;9.13;8.23;;;;;24.00;100591.00;;;;2075273;28;20203;-61
2023/08/18 01:59:20;;;;;;;8.13;7.33;;;;;24.00;100590.00;;;;2078773;28;20637;-61
2023/08/18 02:00:21;;;;;;;7.67;6.87;;;;;24.00;100578.00;;;;2067364;28;20214;-61
2023/08/18 02:01:21;;;;;;;8.03;7.33;;;;;24.00;100588.00;;;;2074262;28;20280;-58
2023/08/18 02:02:21;;;;;;;10.13;7.87;;;;;24.00;100582.00;;;;2083686;28;20211;-56
2023/08/18 02:03:23;;;;;;;7.60;6.90;;;;;23.90;100593.00;;;;2070532;28;20273;-58
2023/08/18 02:04:23;;;;;;;8.20;7.40;;;;;24.00;100591.00;;;;2073383;28;20218;-58
2023/08/18 02:05:23;;;;;;;7.87;7.07;;;;;24.00;100617.00;;;;2074452;28;20760;-58
2023/08/18 02:06:24;;;;;;;8.57;7.77;;;;;24.00;100587.00;;;;2096071;28;20704;-55
2023/08/18 02:07:24;;;;;;;8.13;7.00;;;;;24.00;100590.00;;;;2081278;28;20710;-56
2023/08/18 02:08:24;;;;;;;8.07;7.10;;;;;24.00;100583.00;;;;2076596;28;20729;-58
2023/08/18 02:09:24;;;;;;;8.43;7.63;;;;;24.00;100579.00;;;;2092577;28;20790;-58
2023/08/18 02:10:25;;;;;;;8.13;7.37;;;;;24.00;100592.00;;;;2085620;28;20717;-58
2023/08/18 02:11:25;;;;;;;11.50;7.87;;;;;23.90;100576.00;;;;2089895;28;20928;-56
2023/08/18 02:12:26;;;;;;;7.53;6.80;;;;;23.90;100571.00;;;;2093219;28;20325;-58
2023/08/18 02:13:26;;;;;;;7.53;6.83;;;;;23.90;100607.00;;;;2086305;28;20214;-56
2023/08/18 02:14:26;;;;;;;7.17;6.57;;;;;24.00;100577.00;;;;2086533;28;20717;-56
2023/08/18 02:15:27;;;;;;;8.07;7.37;;;;;23.90;100579.00;;;;2086044;28;20717;-58
2023/08/18 02:16:27;;;;;;;8.83;7.83;;;;;24.00;100605.00;;;;2101034;28;20226;-58
2023/08/18 02:17:29;;;;;;;7.93;7.13;;;;;23.90;100578.00;;;;2092336;28;20267;-57
2023/08/18 02:18:30;;;;;;;7.40;6.68;;;;;23.90;100580.00;;;;2078551;28;20233;-58
2023/08/18 02:19:30;;;;;;;7.67;6.87;;;;;23.90;100572.00;;;;2090774;28;20204;-59
2023/08/18 02:20:30;;;;;;;7.70;6.90;;;;;24.00;100573.00;;;;2089075;28;20600;-55
2023/08/18 02:21:31;;;;;;;8.40;6.93;;;;;24.00;100571.00;;;;2082552;28;20602;-58
2023/08/18 02:22:31;;;;;;;6.90;6.20;;;;;23.90;100571.00;;;;2077794;28;20217;-58
2023/08/18 02:23:31;;;;;;;7.93;7.00;;;;;23.90;100574.00;;;;2090949;28;20326;-58
2023/08/18 02:24:32;;;;;;;8.23;7.30;;;;;23.90;100582.00;;;;2099605;28;20382;-58
2023/08/18 02:25:32;;;;;;;7.70;6.93;;;;;24.00;100573.00;;;;2098704;28;20268;-58
2023/08/18 02:26:32;;;;;;;7.50;6.80;;;;;23.90;100573.00;;;;2099423;28;20295;-58
2023/08/18 02:27:33;;;;;;;8.17;7.37;;;;;24.00;100572.00;;;;2085281;28;20223;-56
2023/08/18 02:28:33;;;;;;;7.30;6.60;;;;;24.00;100577.00;;;;2077064;28;20224;-56
2023/08/18 02:29:33;;;;;;;7.10;6.40;;;;;23.90;100574.00;;;;2083249;28;20208;-57
2023/08/18 02:30:34;;;;;;;8.87;8.00;;;;;23.90;100578.00;;;;2083364;28;21097;-58
2023/08/18 02:31:34;;;;;;;7.17;6.47;;;;;23.90;100566.00;;;;2093256;28;20250;-56
2023/08/18 02:32:35;;;;;;;6.80;6.23;;;;;23.90;100566.00;;;;2094504;28;20211;-58
2023/08/18 02:33:35;;;;;;;7.43;6.73;;;;;23.90;100570.00;;;;2083001;28;20223;-55
2023/08/18 02:34:35;;;;;;;6.77;6.17;;;;;23.90;100563.00;;;;2098280;28;20203;-56
2023/08/18 02:35:36;;;;;;;7.57;6.87;;;;;23.90;100562.00;;;;2100197;28;20212;-58
2023/08/18 02:36:36;;;;;;;8.30;7.50;;;;;23.90;100569.00;;;;2094123;28;20204;-58
2023/08/18 02:37:36;;;;;;;6.40;5.80;;;;;23.90;100566.00;;;;2099607;28;20246;-58
2023/08/18 02:38:37;;;;;;;6.53;5.93;;;;;23.90;100558.00;;;;2090805;28;20227;-58
2023/08/18 02:39:38;;;;;;;6.60;6.00;;;;;23.90;100564.00;;;;2099775;28;20207;-58
2023/08/18 02:40:38;;;;;;;7.00;6.30;;;;;23.90;100561.00;;;;2094191;28;20670;-58
2023/08/18 02:41:38;;;;;;;6.53;5.93;;;;;23.90;100560.00;;;;2093269;28;20937;-58
2023/08/18 02:42:40;;;;;;;8.27;7.47;;;;;23.60;100568.00;;;;2090544;28;20239;-58
2023/08/18 02:43:43;;;;;;;6.95;6.25;;;;;23.90;100559.00;;;;2082143;28;20354;-57
2023/08/18 02:44:43;;;;;;;7.28;6.57;;;;;23.90;100561.00;;;;2088620;28;20698;-58
2023/08/18 02:45:43;;;;;;;7.40;6.70;;;;;23.90;100562.00;;;;2086300;28;20311;-56
2023/08/18 02:46:44;;;;;;;8.37;7.47;;;;;24.00;100561.00;;;;2091194;28;20224;-56
2023/08/18 02:47:44;;;;;;;8.20;7.50;;;;;23.90;100552.00;;;;2086961;28;20948;-56
2023/08/18 02:48:44;;;;;;;6.73;6.10;;;;;23.90;100560.00;;;;2079260;28;20637;-56
2023/08/18 02:49:47;;;;;;;7.03;6.43;;;;;23.90;100552.00;;;;2089193;28;20239;-57
2023/08/18 02:50:47;;;;;;;7.05;6.45;;;;;23.90;100557.00;;;;2095756;28;20222;-58
2023/08/18 02:51:48;;;;;;;6.50;5.90;;;;;23.20;100555.00;;;;2097787;28;20219;-58
2023/08/18 02:52:48;;;;;;;7.97;7.20;;;;;23.90;100560.00;;;;2096334;28;20204;-55
2023/08/18 02:53:50;;;;;;;7.23;6.53;;;;;23.90;100565.00;;;;2084688;28;20242;-57
2023/08/18 02:54:50;;;;;;;7.53;6.82;;;;;23.90;100563.00;;;;2093543;28;20219;-58
2023/08/18 02:55:52;;;;;;;6.47;5.97;;;;;23.90;100559.00;;;;2097094;28;20218;-55
2023/08/18 02:56:52;;;;;;;7.32;6.63;;;;;23.90;100561.00;;;;2084002;28;20217;-58
2023/08/18 02:57:52;;;;;;;6.30;5.70;;;;;23.90;100571.00;;;;2085038;28;20786;-56
2023/08/18 02:58:52;;;;;;;7.33;6.63;;;;;23.90;100557.00;;;;2082038;28;20760;-56
2023/08/18 02:59:53;;;;;;;7.40;6.63;;;;;23.90;100555.00;;;;2091530;28;20644;-57
2023/08/18 03:00:55;;;;;;;6.60;5.97;;;;;23.90;100554.00;;;;2092506;28;21138;-58
2023/08/18 03:01:55;;;;;;;7.18;6.13;;;;;23.90;100569.00;;;;2093919;28;20223;-58
2023/08/18 03:02:55;;;;;;;7.00;6.30;;;;;23.90;100562.00;;;;2090574;28;20666;-58
2023/08/18 03:03:56;;;;;;;7.10;6.17;;;;;23.90;100555.00;;;;2081454;28;20645;-58
2023/08/18 03:04:56;;;;;;;7.30;6.60;;;;;23.90;100558.00;;;;2100152;28;20213;-56
2023/08/18 03:06:06;;;;;;;6.93;6.23;;;;;23.90;100522.00;;;;2091794;28;20276;-64
2023/08/18 03:07:07;;;;;;;6.63;6.03;;;;;23.90;100614.00;;;;2071024;28;20222;-58
2023/08/18 03:08:07;;;;;;;7.40;6.70;;;;;23.90;100563.00;;;;2081939;28;20766;-56
2023/08/18 03:09:07;;;;;;;6.33;5.73;;;;;23.90;100563.00;;;;2086673;28;20583;-57
2023/08/18 03:10:08;;;;;;;5.87;5.27;;;;;23.90;100558.00;;;;2093731;28;20597;-58
2023/08/18 03:11:08;;;;;;;6.23;5.63;;;;;23.90;100562.00;;;;2091244;28;20633;-58
2023/08/18 03:12:08;;;;;;;6.37;5.77;;;;;23.90;100563.00;;;;2101874;28;20207;-58
2023/08/18 03:13:09;;;;;;;6.80;5.93;;;;;24.00;100556.00;;;;2086729;28;20235;-60
2023/08/18 03:14:09;;;;;;;6.90;6.20;;;;;23.60;100559.00;;;;2082310;28;20258;-58
2023/08/18 03:15:10;;;;;;;6.93;5.80;;;;;23.90;100561.00;;;;2092186;28;20261;-55
2023/08/18 03:16:10;;;;;;;6.30;5.70;;;;;24.00;100558.00;;;;2099356;28;20207;-57
2023/08/18 03:17:10;;;;;;;7.33;5.70;;;;;23.90;100560.00;;;;2101792;28;20634;-57
2023/08/18 03:18:11;;;;;;;6.83;5.67;;;;;24.00;100569.00;;;;2085991;28;20236;-58
2023/08/18 03:19:11;;;;;;;5.90;5.30;;;;;23.90;100560.00;;;;2100205;28;20222;-58
2023/08/18 03:20:11;;;;;;;8.40;6.40;;;;;23.90;100564.00;;;;2101588;28;20203;-59
2023/08/18 03:21:12;;;;;;;6.77;6.17;;;;;23.90;100580.00;;;;2089621;28;20212;-56
2023/08/18 03:22:12;;;;;;;6.83;5.80;;;;;23.90;100565.00;;;;2091843;28;20236;-57
2023/08/18 03:23:18;;;;;;;5.90;5.30;;;;;23.90;100567.00;;;;2091010;28;20520;-58
2023/08/18 03:24:18;;;;;;;7.68;5.82;;;;;23.90;100566.00;;;;2085389;28;20228;-56
2023/08/18 03:25:18;;;;;;;7.20;6.50;;;;;23.90;100569.00;;;;2078518;28;21204;-55
2023/08/18 03:26:19;;;;;;;7.33;6.63;;;;;23.90;100563.00;;;;2097072;28;20408;-57
2023/08/18 03:27:19;;;;;;;7.23;5.90;;;;;23.90;100563.00;;;;2093774;28;20250;-58
2023/08/18 03:28:19;;;;;;;9.27;6.20;;;;;23.90;100573.00;;;;2080467;28;20261;-59
2023/08/18 03:29:20;;;;;;;5.90;5.30;;;;;23.90;100574.00;;;;2091953;28;20216;-58
2023/08/18 03:30:20;;;;;;;7.23;6.53;;;;;23.90;100560.00;;;;2094877;28;20303;-55
2023/08/18 03:31:21;;;;;;;6.50;5.90;;;;;23.90;100555.00;;;;2101979;28;20215;-56
2023/08/18 03:32:22;;;;;;;8.30;6.90;;;;;23.90;100559.00;;;;2102642;28;20238;-57
2023/08/18 03:33:22;;;;;;;6.65;5.95;;;;;23.90;100564.00;;;;2076109;28;20215;-58
2023/08/18 03:34:22;;;;;;;7.30;6.53;;;;;24.00;100559.00;;;;2077756;28;20232;-55
2023/08/18 03:35:23;;;;;;;6.43;5.57;;;;;23.90;100560.00;;;;2089476;28;20351;-57
2023/08/18 03:36:23;;;;;;;7.47;6.23;;;;;23.90;100558.00;;;;2100717;28;20290;-58
2023/08/18 03:37:24;;;;;;;8.37;6.30;;;;;23.90;100559.00;;;;2101886;28;20219;-57
2023/08/18 03:38:24;;;;;;;7.17;5.80;;;;;23.90;100557.00;;;;2080253;28;20290;-57
2023/08/18 03:39:24;;;;;;;7.10;6.00;;;;;23.90;100558.00;;;;2069230;28;20253;-58
2023/08/18 03:40:25;;;;;;;5.57;4.97;;;;;23.90;100563.00;;;;2078646;28;20272;-58
2023/08/18 03:41:26;;;;;;;6.70;6.10;;;;;23.90;100564.00;;;;2102573;28;20212;-58
2023/08/18 03:42:26;;;;;;;5.80;5.20;;;;;23.90;100559.00;;;;2100127;28;20482;-58
2023/08/18 03:43:26;;;;;;;6.80;6.20;;;;;23.90;100555.00;;;;2090336;28;20226;-55
2023/08/18 03:44:27;;;;;;;6.73;6.13;;;;;23.90;100560.00;;;;2084956;28;20229;-55
2023/08/18 03:45:27;;;;;;;7.37;6.67;;;;;23.90;100565.00;;;;2086370;28;20381;-58
2023/08/18 03:46:28;;;;;;;8.00;6.47;;;;;23.90;100563.00;;;;2093908;28;20660;-56
2023/08/18 03:47:29;;;;;;;7.27;6.50;;;;;23.90;100560.00;;;;2092518;28;20442;-57
2023/08/18 03:48:29;;;;;;;5.80;5.20;;;;;23.90;100553.00;;;;2076889;28;20785;-63
2023/08/18 03:49:29;;;;;;;6.50;5.93;;;;;23.90;100551.00;;;;2086541;28;20861;-56
2023/08/18 03:50:30;;;;;;;6.73;6.03;;;;;23.90;100546.00;;;;2085952;28;20211;-56
2023/08/18 03:51:30;;;;;;;8.20;6.00;;;;;23.80;100562.00;;;;2094561;28;20295;-56
2023/08/18 03:52:30;;;;;;;7.23;6.37;;;;;23.90;100558.00;;;;2102403;28;20215;-58
2023/08/18 03:53:31;;;;;;;6.60;6.00;;;;;23.90;100555.00;;;;2091514;28;20281;-55
2023/08/18 03:54:31;;;;;;;7.70;6.83;;;;;23.90;100560.00;;;;2092550;28;20227;-57
2023/08/18 03:55:31;;;;;;;7.77;5.93;;;;;23.90;100564.00;;;;2094991;28;20207;-58
2023/08/18 03:56:32;;;;;;;6.70;5.97;;;;;23.90;100374.00;;;;2094053;28;20752;-58
2023/08/18 03:57:32;;;;;;;6.23;5.60;;;;;23.90;100559.00;;;;2085347;28;20724;-56
2023/08/18 03:58:32;;;;;;;6.57;5.97;;;;;23.90;100556.00;;;;2071443;28;20385;-58
2023/08/18 03:59:33;;;;;;;7.17;6.47;;;;;23.90;100563.00;;;;2091331;28;20228;-58
2023/08/18 04:00:33;;;;;;;6.93;6.23;;;;;23.90;100561.00;;;;2098734;28;20294;-58
2023/08/18 04:01:34;;;;;;;6.73;5.63;;;;;23.90;100564.00;;;;2096398;28;20856;-58
2023/08/18 04:02:34;;;;;;;6.47;5.87;;;;;23.90;100566.00;;;;2086158;28;20263;-54
2023/08/18 04:03:35;;;;;;;6.30;5.70;;;;;23.90;100556.00;;;;2082277;28;20246;-56
2023/08/18 04:04:35;;;;;;;6.50;5.85;;;;;23.90;100563.00;;;;2079557;28;20213;-58
2023/08/18 04:05:36;;;;;;;6.93;6.33;;;;;23.90;100562.00;;;;2087058;28;20316;-59
2023/08/18 04:06:36;;;;;;;6.70;5.97;;;;;23.90;100561.00;;;;2099385;28;20294;-56
2023/08/18 04:07:37;;;;;;;7.00;6.30;;;;;23.90;100563.00;;;;2101037;28;20703;-57
2023/08/18 04:08:41;;;;;;;7.83;6.60;;;;;23.90;100566.00;;;;2090417;28;20277;-58
2023/08/18 04:09:42;;;;;;;7.53;5.82;;;;;23.90;100560.00;;;;2091630;28;20205;-57
2023/08/18 04:10:42;;;;;;;6.83;5.97;;;;;23.90;100558.00;;;;2096878;28;20880;-56
2023/08/18 04:11:43;;;;;;;7.10;6.37;;;;;23.90;100559.00;;;;2089990;28;20216;-56
2023/08/18 04:12:43;;;;;;;7.83;7.10;;;;;23.90;100565.00;;;;2085109;28;20212;-58
2023/08/18 04:13:44;;;;;;;7.67;6.90;;;;;23.90;100567.00;;;;2081178;28;20228;-58
2023/08/18 04:14:44;;;;;;;7.90;7.10;;;;;23.90;100562.00;;;;2097264;28;20361;-58
2023/08/18 04:15:45;;;;;;;6.70;6.00;;;;;23.90;100571.00;;;;2083652;28;20215;-56
2023/08/18 04:16:45;;;;;;;7.63;6.07;;;;;23.90;100567.00;;;;2090664;28;20708;-56
2023/08/18 04:17:45;;;;;;;7.57;6.30;;;;;23.90;100569.00;;;;2095344;28;20226;-59
2023/08/18 04:18:46;;;;;;;7.70;6.83;;;;;23.90;100573.00;;;;2083930;28;20219;-58
2023/08/18 04:19:46;;;;;;;7.00;6.30;;;;;23.90;100572.00;;;;2101984;28;20242;-58
2023/08/18 04:20:46;;;;;;;6.57;5.80;;;;;23.90;100565.00;;;;2101734;28;20744;-55
2023/08/18 04:21:47;;;;;;;6.33;5.73;;;;;23.90;100573.00;;;;2101718;28;20892;-58
2023/08/18 04:22:47;;;;;;;7.17;6.47;;;;;23.90;100586.00;;;;2102271;28;20568;-58
2023/08/18 04:23:47;;;;;;;7.23;5.53;;;;;23.90;100569.00;;;;2077498;28;20695;-55
2023/08/18 04:24:48;;;;;;;6.07;5.50;;;;;23.90;100567.00;;;;2086810;28;20653;-58
2023/08/18 04:25:48;;;;;;;9.10;6.40;;;;;23.90;100564.00;;;;2083138;28;20620;-58
2023/08/18 04:26:48;;;;;;;7.33;6.27;;;;;23.90;100562.00;;;;2084847;28;20233;-57
2023/08/18 04:27:49;;;;;;;7.80;6.70;;;;;23.90;100560.00;;;;2090870;28;20226;-58
2023/08/18 04:28:49;;;;;;;7.63;6.77;;;;;23.90;100562.00;;;;2080560;28;20236;-58
2023/08/18 04:29:49;;;;;;;7.57;6.60;;;;;23.90;100563.00;;;;2093293;28;20307;-58
2023/08/18 04:30:50;;;;;;;7.40;6.20;;;;;23.90;100557.00;;;;2098586;28;20208;-56
2023/08/18 04:31:50;;;;;;;7.20;6.50;;;;;23.90;100559.00;;;;2102011;28;20234;-57
2023/08/18 04:32:50;;;;;;;7.67;6.87;;;;;23.90;100558.00;;;;2094016;28;20236;-57
2023/08/18 04:33:51;;;;;;;7.23;6.53;;;;;23.90;100579.00;;;;2081944;28;20219;-58
2023/08/18 04:34:52;;;;;;;8.30;6.33;;;;;23.90;100562.00;;;;2079047;28;20224;-58
2023/08/18 04:35:52;;;;;;;7.33;6.47;;;;;23.90;100559.00;;;;2077653;28;21840;-55
2023/08/18 04:36:53;;;;;;;7.20;6.50;;;;;23.90;100553.00;;;;2080943;28;20452;-56
2023/08/18 04:37:53;;;;;;;6.60;6.00;;;;;23.90;100553.00;;;;2092513;28;20224;-58
2023/08/18 04:38:55;;;;;;;7.00;6.30;;;;;23.90;100551.00;;;;2078173;28;20256;-58
2023/08/18 04:39:55;;;;;;;7.32;6.60;;;;;23.90;100547.00;;;;2080090;28;20236;-57
2023/08/18 04:40:59;;;;;;;7.20;6.50;;;;;23.90;100548.00;;;;2089035;28;20884;-58
2023/08/18 04:41:59;;;;;;;6.63;6.03;;;;;23.90;100559.00;;;;2088624;28;20216;-57
2023/08/18 04:43:00;;;;;;;6.67;6.00;;;;;23.90;100555.00;;;;2092469;28;20236;-58
2023/08/18 04:44:00;;;;;;;6.30;5.53;;;;;23.90;100550.00;;;;2087234;28;20200;-58
2023/08/18 04:45:00;;;;;;;6.40;5.80;;;;;23.90;100552.00;;;;2095680;28;20219;-55
2023/08/18 04:46:01;;;;;;;5.83;5.17;;;;;23.90;100548.00;;;;2092163;28;20216;-59
2023/08/18 04:47:03;;;;;;;7.37;6.57;;;;;23.90;100551.00;;;;2090258;28;20302;-58
2023/08/18 04:48:03;;;;;;;6.80;6.20;;;;;23.90;100548.00;;;;2097712;28;20208;-58
2023/08/18 04:49:04;;;;;;;7.00;6.30;;;;;23.90;100551.00;;;;2086409;28;20204;-58
2023/08/18 04:50:05;;;;;;;7.05;6.30;;;;;23.90;100551.00;;;;2095569;28;20204;-55
2023/08/18 04:51:06;;;;;;;6.93;6.23;;;;;23.90;100549.00;;;;2097681;28;20287;-59
2023/08/18 04:52:07;;;;;;;6.67;5.97;;;;;23.90;100554.00;;;;2098772;28;20454;-61
2023/08/18 04:53:08;;;;;;;6.40;5.80;;;;;23.90;100553.00;;;;2088373;28;20236;-63
2023/08/18 04:54:08;;;;;;;6.57;5.87;;;;;23.90;100557.00;;;;2081022;28;20205;-57
2023/08/18 04:55:08;;;;;;;7.00;6.30;;;;;23.90;100554.00;;;;2091643;28;20261;-59
2023/08/18 04:56:09;;;;;;;6.30;5.33;;;;;23.90;100552.00;;;;2097378;28;20311;-59
2023/08/18 04:57:10;;;;;;;6.90;6.20;;;;;23.90;100556.00;;;;2092090;28;20690;-57
2023/08/18 04:58:13;;;;;;;5.90;5.40;;;;;23.90;100555.00;;;;2080830;28;20239;-60
2023/08/18 04:59:13;;;;;;;6.60;5.95;;;;;23.90;100578.00;;;;2096759;28;20277;-59
2023/08/18 05:00:14;;;;;;;6.97;6.27;;;;;23.90;100561.00;;;;2087386;28;20713;-56